sensor_id;sensor_type;location;lat;lon;timestamp;P1;durP1;ratioP1;P2;durP2;ratioP2
83139;SDS011;73027;54.208;19.128;2024-01-11T00:02:20;18.48;;;7.35;;
83139;SDS011;73027;54.208;19.128;2024-01-11T00:04:45;24.95;;;8.68;;
83139;SDS011;73027;54.208;19.128;2024-01-11T00:07:11;25.17;;;8.20;;
83139;SDS011;73027;54.208;19.128;2024-01-11T00:09:39;15.40;;;5.93;;
83139;SDS011;73027;54.208;19.128;2024-01-11T00:12:06;33.88;;;11.65;;
83139;SDS011;73027;54.208;19.128;2024-01-11T00:14:32;27.42;;;9.77;;
83139;SDS011;73027;54.208;19.128;2024-01-11T00:16:58;24.23;;;8.75;;
83139;SDS011;73027;54.208;19.128;2024-01-11T00:19:23;26.35;;;10.05;;
83139;SDS011;73027;54.208;19.128;2024-01-11T00:21:49;24.20;;;8.85;;
83139;SDS011;73027;54.208;19.128;2024-01-11T00:24:14;28.58;;;9.90;;
83139;SDS011;73027;54.208;19.128;2024-01-11T00:26:40;12.68;;;5.32;;
83139;SDS011;73027;54.208;19.128;2024-01-11T00:29:06;29.85;;;11.05;;
83139;SDS011;73027;54.208;19.128;2024-01-11T00:31:32;13.50;;;4.72;;
83139;SDS011;73027;54.208;19.128;2024-01-11T00:33:58;23.70;;;8.43;;
83139;SDS011;73027;54.208;19.128;2024-01-11T00:36:24;16.63;;;6.28;;
83139;SDS011;73027;54.208;19.128;2024-01-11T00:38:49;27.52;;;9.98;;
83139;SDS011;73027;54.208;19.128;2024-01-11T00:41:15;36.85;;;13.40;;
83139;SDS011;73027;54.208;19.128;2024-01-11T00:43:42;16.60;;;6.88;;
83139;SDS011;73027;54.208;19.128;2024-01-11T00:46:07;30.13;;;10.68;;
83139;SDS011;73027;54.208;19.128;2024-01-11T00:48:33;21.17;;;8.25;;
83139;SDS011;73027;54.208;19.128;2024-01-11T00:50:58;12.60;;;4.72;;
83139;SDS011;73027;54.208;19.128;2024-01-11T00:53:24;10.90;;;4.32;;
83139;SDS011;73027;54.208;19.128;2024-01-11T00:55:50;6.93;;;2.78;;
83139;SDS011;73027;54.208;19.128;2024-01-11T00:58:16;8.35;;;3.45;;
83139;SDS011;73027;54.208;19.128;2024-01-11T01:00:41;13.98;;;5.10;;
83139;SDS011;73027;54.208;19.128;2024-01-11T01:03:07;28.75;;;10.70;;
83139;SDS011;73027;54.208;19.128;2024-01-11T01:05:32;14.85;;;6.05;;
83139;SDS011;73027;54.208;19.128;2024-01-11T01:07:58;19.15;;;7.32;;
83139;SDS011;73027;54.208;19.128;2024-01-11T01:10:23;23.25;;;8.25;;
83139;SDS011;73027;54.208;19.128;2024-01-11T01:12:49;22.65;;;7.80;;
83139;SDS011;73027;54.208;19.128;2024-01-11T01:15:14;14.43;;;5.25;;
83139;SDS011;73027;54.208;19.128;2024-01-11T01:17:39;32.20;;;13.13;;
83139;SDS011;73027;54.208;19.128;2024-01-11T01:20:05;14.98;;;6.05;;
83139;SDS011;73027;54.208;19.128;2024-01-11T01:22:31;10.48;;;3.90;;
83139;SDS011;73027;54.208;19.128;2024-01-11T01:24:57;12.20;;;3.72;;
83139;SDS011;73027;54.208;19.128;2024-01-11T01:27:22;8.25;;;3.22;;
83139;SDS011;73027;54.208;19.128;2024-01-11T01:29:47;5.90;;;2.38;;
83139;SDS011;73027;54.208;19.128;2024-01-11T01:32:13;5.93;;;2.10;;
83139;SDS011;73027;54.208;19.128;2024-01-11T01:34:39;6.80;;;2.60;;
83139;SDS011;73027;54.208;19.128;2024-01-11T01:37:04;5.35;;;1.90;;
83139;SDS011;73027;54.208;19.128;2024-01-11T01:39:31;4.32;;;1.58;;
83139;SDS011;73027;54.208;19.128;2024-01-11T01:41:56;6.07;;;2.10;;
83139;SDS011;73027;54.208;19.128;2024-01-11T01:44:21;6.25;;;2.33;;
83139;SDS011;73027;54.208;19.128;2024-01-11T01:46:47;6.53;;;2.47;;
83139;SDS011;73027;54.208;19.128;2024-01-11T01:49:14;5.47;;;1.98;;
83139;SDS011;73027;54.208;19.128;2024-01-11T01:51:39;4.63;;;1.60;;
83139;SDS011;73027;54.208;19.128;2024-01-11T01:54:05;6.70;;;2.55;;
83139;SDS011;73027;54.208;19.128;2024-01-11T01:56:31;7.63;;;2.28;;
83139;SDS011;73027;54.208;19.128;2024-01-11T01:58:57;6.55;;;2.28;;
83139;SDS011;73027;54.208;19.128;2024-01-11T02:01:23;6.05;;;2.33;;
83139;SDS011;73027;54.208;19.128;2024-01-11T02:03:52;6.50;;;2.22;;
83139;SDS011;73027;54.208;19.128;2024-01-11T02:06:19;5.63;;;2.03;;
83139;SDS011;73027;54.208;19.128;2024-01-11T02:08:48;6.22;;;1.83;;
83139;SDS011;73027;54.208;19.128;2024-01-11T02:11:16;7.43;;;3.03;;
83139;SDS011;73027;54.208;19.128;2024-01-11T02:13:44;6.63;;;2.47;;
83139;SDS011;73027;54.208;19.128;2024-01-11T02:16:11;6.50;;;2.50;;
83139;SDS011;73027;54.208;19.128;2024-01-11T02:18:38;6.55;;;2.42;;
83139;SDS011;73027;54.208;19.128;2024-01-11T02:21:04;5.28;;;2.00;;
83139;SDS011;73027;54.208;19.128;2024-01-11T02:23:33;6.85;;;2.17;;
83139;SDS011;73027;54.208;19.128;2024-01-11T02:26:01;7.35;;;2.53;;
83139;SDS011;73027;54.208;19.128;2024-01-11T02:28:27;6.53;;;2.22;;
83139;SDS011;73027;54.208;19.128;2024-01-11T02:30:52;8.20;;;2.60;;
83139;SDS011;73027;54.208;19.128;2024-01-11T02:33:17;9.25;;;3.13;;
83139;SDS011;73027;54.208;19.128;2024-01-11T02:35:43;8.85;;;3.30;;
83139;SDS011;73027;54.208;19.128;2024-01-11T02:38:09;8.57;;;2.97;;
83139;SDS011;73027;54.208;19.128;2024-01-11T02:40:34;7.97;;;3.10;;
83139;SDS011;73027;54.208;19.128;2024-01-11T02:43:11;6.78;;;2.13;;
83139;SDS011;73027;54.208;19.128;2024-01-11T02:45:37;6.90;;;2.42;;
83139;SDS011;73027;54.208;19.128;2024-01-11T02:48:02;6.47;;;2.80;;
83139;SDS011;73027;54.208;19.128;2024-01-11T02:50:28;6.40;;;2.38;;
83139;SDS011;73027;54.208;19.128;2024-01-11T02:52:53;6.40;;;2.20;;
83139;SDS011;73027;54.208;19.128;2024-01-11T02:55:19;8.77;;;2.53;;
83139;SDS011;73027;54.208;19.128;2024-01-11T02:57:45;6.93;;;2.83;;
83139;SDS011;73027;54.208;19.128;2024-01-11T03:00:10;7.00;;;2.72;;
83139;SDS011;73027;54.208;19.128;2024-01-11T03:02:37;6.50;;;2.20;;
83139;SDS011;73027;54.208;19.128;2024-01-11T03:05:06;9.23;;;2.63;;
83139;SDS011;73027;54.208;19.128;2024-01-11T03:07:31;7.70;;;2.38;;
83139;SDS011;73027;54.208;19.128;2024-01-11T03:09:58;5.95;;;2.20;;
83139;SDS011;73027;54.208;19.128;2024-01-11T03:12:23;4.78;;;1.58;;
83139;SDS011;73027;54.208;19.128;2024-01-11T03:14:51;7.22;;;1.73;;
83139;SDS011;73027;54.208;19.128;2024-01-11T03:17:16;6.65;;;2.15;;
83139;SDS011;73027;54.208;19.128;2024-01-11T03:19:41;6.70;;;2.55;;
83139;SDS011;73027;54.208;19.128;2024-01-11T03:22:07;6.50;;;2.20;;
83139;SDS011;73027;54.208;19.128;2024-01-11T03:24:33;6.82;;;2.15;;
83139;SDS011;73027;54.208;19.128;2024-01-11T03:27:02;7.68;;;2.33;;
83139;SDS011;73027;54.208;19.128;2024-01-11T03:29:27;5.60;;;1.70;;
83139;SDS011;73027;54.208;19.128;2024-01-11T03:31:53;7.28;;;2.53;;
83139;SDS011;73027;54.208;19.128;2024-01-11T03:34:18;6.70;;;2.22;;
83139;SDS011;73027;54.208;19.128;2024-01-11T03:36:44;7.60;;;2.45;;
83139;SDS011;73027;54.208;19.128;2024-01-11T03:39:10;7.18;;;2.80;;
83139;SDS011;73027;54.208;19.128;2024-01-11T03:41:35;6.88;;;2.70;;
83139;SDS011;73027;54.208;19.128;2024-01-11T03:44:00;6.40;;;2.13;;
83139;SDS011;73027;54.208;19.128;2024-01-11T03:46:26;6.93;;;2.28;;
83139;SDS011;73027;54.208;19.128;2024-01-11T03:48:51;8.52;;;2.13;;
83139;SDS011;73027;54.208;19.128;2024-01-11T03:51:17;7.15;;;2.30;;
83139;SDS011;73027;54.208;19.128;2024-01-11T03:53:42;7.35;;;2.25;;
83139;SDS011;73027;54.208;19.128;2024-01-11T03:56:08;7.90;;;2.28;;
83139;SDS011;73027;54.208;19.128;2024-01-11T03:58:35;7.20;;;2.10;;
83139;SDS011;73027;54.208;19.128;2024-01-11T04:01:01;7.72;;;2.20;;
83139;SDS011;73027;54.208;19.128;2024-01-11T04:03:26;5.57;;;1.80;;
83139;SDS011;73027;54.208;19.128;2024-01-11T04:05:52;6.05;;;1.90;;
83139;SDS011;73027;54.208;19.128;2024-01-11T04:08:17;7.38;;;1.83;;
83139;SDS011;73027;54.208;19.128;2024-01-11T04:10:43;7.00;;;2.00;;
83139;SDS011;73027;54.208;19.128;2024-01-11T04:13:08;8.15;;;2.35;;
83139;SDS011;73027;54.208;19.128;2024-01-11T04:15:33;6.82;;;1.95;;
83139;SDS011;73027;54.208;19.128;2024-01-11T04:17:59;5.80;;;1.70;;
83139;SDS011;73027;54.208;19.128;2024-01-11T04:20:24;5.85;;;1.73;;
83139;SDS011;73027;54.208;19.128;2024-01-11T04:22:50;6.15;;;1.88;;
83139;SDS011;73027;54.208;19.128;2024-01-11T04:25:15;7.63;;;1.67;;
83139;SDS011;73027;54.208;19.128;2024-01-11T04:27:41;6.28;;;1.67;;
83139;SDS011;73027;54.208;19.128;2024-01-11T04:30:06;5.55;;;1.83;;
83139;SDS011;73027;54.208;19.128;2024-01-11T04:32:32;7.22;;;1.88;;
83139;SDS011;73027;54.208;19.128;2024-01-11T04:34:57;6.68;;;2.20;;
83139;SDS011;73027;54.208;19.128;2024-01-11T04:37:23;8.40;;;2.55;;
83139;SDS011;73027;54.208;19.128;2024-01-11T04:39:48;6.78;;;2.03;;
83139;SDS011;73027;54.208;19.128;2024-01-11T04:42:14;7.00;;;2.10;;
83139;SDS011;73027;54.208;19.128;2024-01-11T04:44:39;7.50;;;2.30;;
83139;SDS011;73027;54.208;19.128;2024-01-11T04:47:05;7.35;;;2.00;;
83139;SDS011;73027;54.208;19.128;2024-01-11T04:49:30;7.93;;;2.90;;
83139;SDS011;73027;54.208;19.128;2024-01-11T04:51:55;7.00;;;2.50;;
83139;SDS011;73027;54.208;19.128;2024-01-11T04:54:21;14.10;;;3.33;;
83139;SDS011;73027;54.208;19.128;2024-01-11T04:56:46;28.58;;;9.07;;
83139;SDS011;73027;54.208;19.128;2024-01-11T04:59:12;34.03;;;12.32;;
83139;SDS011;73027;54.208;19.128;2024-01-11T05:01:37;22.02;;;7.25;;
83139;SDS011;73027;54.208;19.128;2024-01-11T05:04:03;12.55;;;3.70;;
83139;SDS011;73027;54.208;19.128;2024-01-11T05:06:28;31.98;;;11.20;;
83139;SDS011;73027;54.208;19.128;2024-01-11T05:08:55;15.80;;;6.05;;
83139;SDS011;73027;54.208;19.128;2024-01-11T05:11:21;13.52;;;3.90;;
83139;SDS011;73027;54.208;19.128;2024-01-11T05:13:49;40.92;;;10.10;;
83139;SDS011;73027;54.208;19.128;2024-01-11T05:16:22;59.50;;;14.15;;
83139;SDS011;73027;54.208;19.128;2024-01-11T05:21:19;38.58;;;11.15;;
83139;SDS011;73027;54.208;19.128;2024-01-11T05:23:45;22.42;;;6.28;;
83139;SDS011;73027;54.208;19.128;2024-01-11T05:26:11;41.05;;;10.05;;
83139;SDS011;73027;54.208;19.128;2024-01-11T05:28:37;24.67;;;6.47;;
83139;SDS011;73027;54.208;19.128;2024-01-11T05:31:13;17.85;;;5.38;;
83139;SDS011;73027;54.208;19.128;2024-01-11T05:33:40;18.73;;;5.70;;
83139;SDS011;73027;54.208;19.128;2024-01-11T05:36:06;32.20;;;11.63;;
83139;SDS011;73027;54.208;19.128;2024-01-11T05:38:32;71.03;;;23.20;;
83139;SDS011;73027;54.208;19.128;2024-01-11T05:40:57;46.50;;;15.65;;
83139;SDS011;73027;54.208;19.128;2024-01-11T05:43:23;23.23;;;8.20;;
83139;SDS011;73027;54.208;19.128;2024-01-11T05:45:49;36.78;;;14.90;;
83139;SDS011;73027;54.208;19.128;2024-01-11T05:48:15;11.85;;;4.47;;
83139;SDS011;73027;54.208;19.128;2024-01-11T05:50:41;19.98;;;8.90;;
83139;SDS011;73027;54.208;19.128;2024-01-11T05:53:07;11.52;;;4.70;;
83139;SDS011;73027;54.208;19.128;2024-01-11T05:55:32;9.70;;;4.30;;
83139;SDS011;73027;54.208;19.128;2024-01-11T05:57:58;19.80;;;9.90;;
83139;SDS011;73027;54.208;19.128;2024-01-11T06:00:23;22.00;;;10.23;;
83139;SDS011;73027;54.208;19.128;2024-01-11T06:02:48;20.58;;;7.40;;
83139;SDS011;73027;54.208;19.128;2024-01-11T06:05:14;12.88;;;4.63;;
83139;SDS011;73027;54.208;19.128;2024-01-11T06:07:40;22.40;;;12.88;;
83139;SDS011;73027;54.208;19.128;2024-01-11T06:10:06;6.45;;;1.92;;
83139;SDS011;73027;54.208;19.128;2024-01-11T06:12:33;8.02;;;3.22;;
83139;SDS011;73027;54.208;19.128;2024-01-11T06:14:59;13.63;;;3.83;;
83139;SDS011;73027;54.208;19.128;2024-01-11T06:17:25;17.35;;;5.50;;
83139;SDS011;73027;54.208;19.128;2024-01-11T06:19:51;13.32;;;3.70;;
83139;SDS011;73027;54.208;19.128;2024-01-11T06:22:16;74.20;;;27.63;;
83139;SDS011;73027;54.208;19.128;2024-01-11T06:24:42;16.25;;;4.63;;
83139;SDS011;73027;54.208;19.128;2024-01-11T06:27:07;19.08;;;6.22;;
83139;SDS011;73027;54.208;19.128;2024-01-11T06:29:33;14.68;;;3.92;;
83139;SDS011;73027;54.208;19.128;2024-01-11T06:31:58;11.82;;;3.72;;
83139;SDS011;73027;54.208;19.128;2024-01-11T06:34:24;28.67;;;11.27;;
83139;SDS011;73027;54.208;19.128;2024-01-11T06:36:49;7.40;;;2.58;;
83139;SDS011;73027;54.208;19.128;2024-01-11T06:39:15;12.18;;;4.15;;
83139;SDS011;73027;54.208;19.128;2024-01-11T06:41:40;8.13;;;2.95;;
83139;SDS011;73027;54.208;19.128;2024-01-11T06:44:05;8.65;;;3.80;;
83139;SDS011;73027;54.208;19.128;2024-01-11T06:46:31;10.30;;;3.40;;
83139;SDS011;73027;54.208;19.128;2024-01-11T06:48:56;9.40;;;3.22;;
83139;SDS011;73027;54.208;19.128;2024-01-11T06:51:22;9.82;;;4.05;;
83139;SDS011;73027;54.208;19.128;2024-01-11T06:53:48;13.93;;;5.65;;
83139;SDS011;73027;54.208;19.128;2024-01-11T06:56:15;13.02;;;4.97;;
83139;SDS011;73027;54.208;19.128;2024-01-11T06:58:42;11.30;;;3.80;;
83139;SDS011;73027;54.208;19.128;2024-01-11T07:01:09;13.88;;;4.72;;
83139;SDS011;73027;54.208;19.128;2024-01-11T07:03:35;20.98;;;6.80;;
83139;SDS011;73027;54.208;19.128;2024-01-11T07:06:01;26.73;;;10.73;;
83139;SDS011;73027;54.208;19.128;2024-01-11T07:08:27;69.72;;;24.73;;
83139;SDS011;73027;54.208;19.128;2024-01-11T07:10:53;23.92;;;8.10;;
83139;SDS011;73027;54.208;19.128;2024-01-11T07:13:18;29.85;;;11.55;;
83139;SDS011;73027;54.208;19.128;2024-01-11T07:15:44;20.35;;;7.68;;
83139;SDS011;73027;54.208;19.128;2024-01-11T07:18:10;17.92;;;6.03;;
83139;SDS011;73027;54.208;19.128;2024-01-11T07:20:35;10.18;;;3.35;;
83139;SDS011;73027;54.208;19.128;2024-01-11T07:23:00;12.02;;;3.42;;
83139;SDS011;73027;54.208;19.128;2024-01-11T07:25:26;12.80;;;4.35;;
83139;SDS011;73027;54.208;19.128;2024-01-11T07:27:51;13.60;;;4.25;;
83139;SDS011;73027;54.208;19.128;2024-01-11T07:30:17;16.70;;;5.65;;
83139;SDS011;73027;54.208;19.128;2024-01-11T07:32:46;14.80;;;5.28;;
83139;SDS011;73027;54.208;19.128;2024-01-11T07:35:11;14.98;;;4.97;;
83139;SDS011;73027;54.208;19.128;2024-01-11T07:37:38;12.20;;;3.95;;
83139;SDS011;73027;54.208;19.128;2024-01-11T07:40:04;13.35;;;3.92;;
83139;SDS011;73027;54.208;19.128;2024-01-11T07:42:35;10.73;;;3.22;;
83139;SDS011;73027;54.208;19.128;2024-01-11T07:45:00;13.13;;;4.30;;
83139;SDS011;73027;54.208;19.128;2024-01-11T07:47:26;10.07;;;3.72;;
83139;SDS011;73027;54.208;19.128;2024-01-11T07:49:51;57.67;;;19.88;;
83139;SDS011;73027;54.208;19.128;2024-01-11T07:52:17;60.25;;;18.30;;
83139;SDS011;73027;54.208;19.128;2024-01-11T07:54:43;19.73;;;6.13;;
83139;SDS011;73027;54.208;19.128;2024-01-11T07:57:08;46.20;;;14.10;;
83139;SDS011;73027;54.208;19.128;2024-01-11T07:59:34;58.78;;;17.27;;
83139;SDS011;73027;54.208;19.128;2024-01-11T08:02:01;50.08;;;14.82;;
83139;SDS011;73027;54.208;19.128;2024-01-11T08:04:27;39.95;;;13.45;;
83139;SDS011;73027;54.208;19.128;2024-01-11T08:06:52;52.55;;;21.48;;
83139;SDS011;73027;54.208;19.128;2024-01-11T08:09:18;62.75;;;24.70;;
83139;SDS011;73027;54.208;19.128;2024-01-11T08:11:43;28.23;;;12.43;;
83139;SDS011;73027;54.208;19.128;2024-01-11T08:14:08;18.83;;;7.88;;
83139;SDS011;73027;54.208;19.128;2024-01-11T08:16:34;16.70;;;6.47;;
83139;SDS011;73027;54.208;19.128;2024-01-11T08:19:00;18.52;;;7.22;;
83139;SDS011;73027;54.208;19.128;2024-01-11T08:21:28;25.20;;;9.32;;
83139;SDS011;73027;54.208;19.128;2024-01-11T08:23:54;19.55;;;8.07;;
83139;SDS011;73027;54.208;19.128;2024-01-11T08:26:20;15.93;;;6.22;;
83139;SDS011;73027;54.208;19.128;2024-01-11T08:28:47;20.33;;;7.75;;
83139;SDS011;73027;54.208;19.128;2024-01-11T08:31:13;25.60;;;11.52;;
83139;SDS011;73027;54.208;19.128;2024-01-11T08:33:38;28.92;;;12.73;;
83139;SDS011;73027;54.208;19.128;2024-01-11T08:36:04;23.15;;;9.70;;
83139;SDS011;73027;54.208;19.128;2024-01-11T08:38:32;20.73;;;9.40;;
83139;SDS011;73027;54.208;19.128;2024-01-11T08:40:58;17.30;;;4.68;;
83139;SDS011;73027;54.208;19.128;2024-01-11T08:43:24;18.55;;;6.43;;
83139;SDS011;73027;54.208;19.128;2024-01-11T08:45:51;15.90;;;5.80;;
83139;SDS011;73027;54.208;19.128;2024-01-11T08:48:17;17.85;;;6.53;;
83139;SDS011;73027;54.208;19.128;2024-01-11T08:50:43;17.92;;;5.70;;
83139;SDS011;73027;54.208;19.128;2024-01-11T08:53:09;72.88;;;22.38;;
83139;SDS011;73027;54.208;19.128;2024-01-11T08:55:34;24.20;;;8.73;;
83139;SDS011;73027;54.208;19.128;2024-01-11T08:57:59;23.45;;;8.95;;
83139;SDS011;73027;54.208;19.128;2024-01-11T09:00:26;37.03;;;13.93;;
83139;SDS011;73027;54.208;19.128;2024-01-11T09:02:51;34.38;;;14.40;;
83139;SDS011;73027;54.208;19.128;2024-01-11T09:05:17;20.67;;;7.35;;
83139;SDS011;73027;54.208;19.128;2024-01-11T09:07:42;17.50;;;6.88;;
83139;SDS011;73027;54.208;19.128;2024-01-11T09:10:08;16.85;;;5.82;;
83139;SDS011;73027;54.208;19.128;2024-01-11T09:12:34;16.13;;;5.38;;
83139;SDS011;73027;54.208;19.128;2024-01-11T09:15:01;16.27;;;5.82;;
83139;SDS011;73027;54.208;19.128;2024-01-11T09:17:26;17.60;;;6.85;;
83139;SDS011;73027;54.208;19.128;2024-01-11T09:19:52;18.67;;;7.35;;
83139;SDS011;73027;54.208;19.128;2024-01-11T09:22:17;14.57;;;5.80;;
83139;SDS011;73027;54.208;19.128;2024-01-11T09:24:43;16.75;;;6.22;;
83139;SDS011;73027;54.208;19.128;2024-01-11T09:27:08;15.40;;;6.15;;
83139;SDS011;73027;54.208;19.128;2024-01-11T09:29:33;21.13;;;7.05;;
83139;SDS011;73027;54.208;19.128;2024-01-11T09:31:59;17.27;;;5.93;;
83139;SDS011;73027;54.208;19.128;2024-01-11T09:34:25;14.32;;;4.63;;
83139;SDS011;73027;54.208;19.128;2024-01-11T09:36:50;15.60;;;4.93;;
83139;SDS011;73027;54.208;19.128;2024-01-11T09:39:17;24.92;;;8.70;;
83139;SDS011;73027;54.208;19.128;2024-01-11T09:41:46;25.05;;;9.38;;
83139;SDS011;73027;54.208;19.128;2024-01-11T09:44:17;16.63;;;6.20;;
83139;SDS011;73027;54.208;19.128;2024-01-11T09:46:45;20.30;;;6.25;;
83139;SDS011;73027;54.208;19.128;2024-01-11T09:49:12;16.80;;;6.15;;
83139;SDS011;73027;54.208;19.128;2024-01-11T09:54:08;12.57;;;4.70;;
83139;SDS011;73027;54.208;19.128;2024-01-11T09:56:35;10.30;;;3.60;;
83139;SDS011;73027;54.208;19.128;2024-01-11T09:59:02;10.77;;;3.22;;
83139;SDS011;73027;54.208;19.128;2024-01-11T10:01:31;10.30;;;3.05;;
83139;SDS011;73027;54.208;19.128;2024-01-11T10:03:56;10.55;;;3.92;;
83139;SDS011;73027;54.208;19.128;2024-01-11T10:06:22;12.30;;;3.78;;
83139;SDS011;73027;54.208;19.128;2024-01-11T10:08:49;8.85;;;2.58;;
83139;SDS011;73027;54.208;19.128;2024-01-11T10:11:14;9.00;;;2.65;;
83139;SDS011;73027;54.208;19.128;2024-01-11T10:13:39;10.90;;;3.67;;
83139;SDS011;73027;54.208;19.128;2024-01-11T10:16:06;10.82;;;3.22;;
83139;SDS011;73027;54.208;19.128;2024-01-11T10:18:38;8.13;;;2.13;;
83139;SDS011;73027;54.208;19.128;2024-01-11T10:21:04;12.45;;;3.38;;
83139;SDS011;73027;54.208;19.128;2024-01-11T10:23:32;13.35;;;5.13;;
83139;SDS011;73027;54.208;19.128;2024-01-11T10:25:59;13.00;;;6.13;;
83139;SDS011;73027;54.208;19.128;2024-01-11T10:28:25;22.30;;;9.07;;
83139;SDS011;73027;54.208;19.128;2024-01-11T10:30:52;23.77;;;9.07;;
83139;SDS011;73027;54.208;19.128;2024-01-11T10:33:21;17.33;;;7.18;;
83139;SDS011;73027;54.208;19.128;2024-01-11T10:35:47;18.45;;;7.10;;
83139;SDS011;73027;54.208;19.128;2024-01-11T10:38:16;13.95;;;4.47;;
83139;SDS011;73027;54.208;19.128;2024-01-11T10:40:43;22.05;;;6.72;;
83139;SDS011;73027;54.208;19.128;2024-01-11T10:43:10;27.17;;;7.78;;
83139;SDS011;73027;54.208;19.128;2024-01-11T10:45:40;41.45;;;11.98;;
83139;SDS011;73027;54.208;19.128;2024-01-11T10:48:15;24.30;;;8.93;;
83139;SDS011;73027;54.208;19.128;2024-01-11T10:50:44;31.25;;;13.73;;
83139;SDS011;73027;54.208;19.128;2024-01-11T10:55:58;41.58;;;14.05;;
83139;SDS011;73027;54.208;19.128;2024-01-11T10:58:25;37.47;;;12.35;;
83139;SDS011;73027;54.208;19.128;2024-01-11T11:00:51;44.15;;;15.75;;
83139;SDS011;73027;54.208;19.128;2024-01-11T11:03:22;36.58;;;13.93;;
83139;SDS011;73027;54.208;19.128;2024-01-11T11:05:54;27.20;;;11.07;;
83139;SDS011;73027;54.208;19.128;2024-01-11T11:08:23;32.60;;;11.32;;
83139;SDS011;73027;54.208;19.128;2024-01-11T11:10:54;20.05;;;7.15;;
83139;SDS011;73027;54.208;19.128;2024-01-11T11:13:24;23.70;;;9.15;;
83139;SDS011;73027;54.208;19.128;2024-01-11T11:15:50;38.15;;;10.27;;
83139;SDS011;73027;54.208;19.128;2024-01-11T11:18:17;34.58;;;10.27;;
83139;SDS011;73027;54.208;19.128;2024-01-11T11:20:43;19.27;;;7.13;;
83139;SDS011;73027;54.208;19.128;2024-01-11T11:23:11;40.42;;;11.30;;
83139;SDS011;73027;54.208;19.128;2024-01-11T11:25:40;14.45;;;5.15;;
83139;SDS011;73027;54.208;19.128;2024-01-11T11:28:08;18.25;;;5.65;;
83139;SDS011;73027;54.208;19.128;2024-01-11T11:30:37;22.65;;;6.68;;
83139;SDS011;73027;54.208;19.128;2024-01-11T11:33:16;27.63;;;8.57;;
83139;SDS011;73027;54.208;19.128;2024-01-11T11:35:43;39.20;;;13.35;;
83139;SDS011;73027;54.208;19.128;2024-01-11T11:38:17;21.17;;;6.90;;
83139;SDS011;73027;54.208;19.128;2024-01-11T11:40:44;35.05;;;11.50;;
83139;SDS011;73027;54.208;19.128;2024-01-11T11:43:11;23.48;;;8.18;;
83139;SDS011;73027;54.208;19.128;2024-01-11T11:45:38;28.70;;;10.07;;
83139;SDS011;73027;54.208;19.128;2024-01-11T11:51:16;30.45;;;8.70;;
83139;SDS011;73027;54.208;19.128;2024-01-11T11:53:43;34.20;;;10.75;;
83139;SDS011;73027;54.208;19.128;2024-01-11T11:56:11;29.77;;;10.43;;
83139;SDS011;73027;54.208;19.128;2024-01-11T11:58:37;24.92;;;9.23;;
83139;SDS011;73027;54.208;19.128;2024-01-11T12:01:07;28.02;;;10.38;;
83139;SDS011;73027;54.208;19.128;2024-01-11T12:03:34;30.52;;;10.82;;
83139;SDS011;73027;54.208;19.128;2024-01-11T12:06:04;21.30;;;8.15;;
83139;SDS011;73027;54.208;19.128;2024-01-11T12:08:34;20.60;;;7.20;;
83139;SDS011;73027;54.208;19.128;2024-01-11T12:11:00;16.70;;;4.60;;
83139;SDS011;73027;54.208;19.128;2024-01-11T12:13:26;26.38;;;9.20;;
83139;SDS011;73027;54.208;19.128;2024-01-11T12:15:52;27.17;;;10.35;;
83139;SDS011;73027;54.208;19.128;2024-01-11T12:18:18;24.95;;;9.68;;
83139;SDS011;73027;54.208;19.128;2024-01-11T12:20:44;23.42;;;9.32;;
83139;SDS011;73027;54.208;19.128;2024-01-11T12:23:10;23.50;;;7.63;;
83139;SDS011;73027;54.208;19.128;2024-01-11T12:25:36;23.88;;;8.60;;
83139;SDS011;73027;54.208;19.128;2024-01-11T12:28:01;18.92;;;7.90;;
83139;SDS011;73027;54.208;19.128;2024-01-11T12:30:27;17.45;;;5.80;;
83139;SDS011;73027;54.208;19.128;2024-01-11T12:32:55;41.38;;;9.38;;
83139;SDS011;73027;54.208;19.128;2024-01-11T12:35:21;16.90;;;5.05;;
83139;SDS011;73027;54.208;19.128;2024-01-11T12:38:04;19.17;;;5.32;;
83139;SDS011;73027;54.208;19.128;2024-01-11T12:40:34;15.02;;;4.95;;
83139;SDS011;73027;54.208;19.128;2024-01-11T12:43:02;17.35;;;5.82;;
83139;SDS011;73027;54.208;19.128;2024-01-11T12:45:28;13.98;;;5.22;;
83139;SDS011;73027;54.208;19.128;2024-01-11T12:47:54;15.73;;;5.57;;
83139;SDS011;73027;54.208;19.128;2024-01-11T12:50:22;13.93;;;5.28;;
83139;SDS011;73027;54.208;19.128;2024-01-11T12:53:03;31.80;;;16.23;;
83139;SDS011;73027;54.208;19.128;2024-01-11T12:55:32;37.28;;;15.70;;
83139;SDS011;73027;54.208;19.128;2024-01-11T12:58:06;48.50;;;23.08;;
83139;SDS011;73027;54.208;19.128;2024-01-11T13:00:32;19.27;;;8.90;;
83139;SDS011;73027;54.208;19.128;2024-01-11T13:02:58;25.20;;;9.57;;
83139;SDS011;73027;54.208;19.128;2024-01-11T13:05:24;52.75;;;27.00;;
83139;SDS011;73027;54.208;19.128;2024-01-11T13:07:50;152.20;;;69.13;;
83139;SDS011;73027;54.208;19.128;2024-01-11T13:10:16;79.78;;;51.33;;
83139;SDS011;73027;54.208;19.128;2024-01-11T13:12:42;57.10;;;36.17;;
83139;SDS011;73027;54.208;19.128;2024-01-11T13:15:07;64.10;;;43.40;;
83139;SDS011;73027;54.208;19.128;2024-01-11T13:17:33;51.33;;;29.70;;
83139;SDS011;73027;54.208;19.128;2024-01-11T13:19:58;45.53;;;20.60;;
83139;SDS011;73027;54.208;19.128;2024-01-11T13:22:24;82.38;;;32.15;;
83139;SDS011;73027;54.208;19.128;2024-01-11T13:24:50;72.90;;;28.95;;
83139;SDS011;73027;54.208;19.128;2024-01-11T13:27:15;113.72;;;36.63;;
83139;SDS011;73027;54.208;19.128;2024-01-11T13:29:41;80.88;;;25.55;;
83139;SDS011;73027;54.208;19.128;2024-01-11T13:32:06;173.52;;;48.70;;
83139;SDS011;73027;54.208;19.128;2024-01-11T13:34:32;104.88;;;28.60;;
83139;SDS011;73027;54.208;19.128;2024-01-11T13:36:57;220.57;;;56.08;;
83139;SDS011;73027;54.208;19.128;2024-01-11T13:39:24;163.93;;;41.95;;
83139;SDS011;73027;54.208;19.128;2024-01-11T13:41:50;470.83;;;141.82;;
83139;SDS011;73027;54.208;19.128;2024-01-11T13:44:16;189.50;;;49.03;;
83139;SDS011;73027;54.208;19.128;2024-01-11T13:46:41;167.77;;;48.22;;
83139;SDS011;73027;54.208;19.128;2024-01-11T13:49:07;95.63;;;29.70;;
83139;SDS011;73027;54.208;19.128;2024-01-11T13:51:32;68.35;;;20.42;;
83139;SDS011;73027;54.208;19.128;2024-01-11T13:53:58;136.27;;;37.33;;
83139;SDS011;73027;54.208;19.128;2024-01-11T13:56:27;99.10;;;29.23;;
83139;SDS011;73027;54.208;19.128;2024-01-11T13:58:52;160.90;;;42.08;;
83139;SDS011;73027;54.208;19.128;2024-01-11T14:01:18;43.08;;;14.98;;
83139;SDS011;73027;54.208;19.128;2024-01-11T14:03:43;84.28;;;23.52;;
83139;SDS011;73027;54.208;19.128;2024-01-11T14:06:09;331.52;;;84.15;;
83139;SDS011;73027;54.208;19.128;2024-01-11T14:08:34;125.93;;;31.80;;
83139;SDS011;73027;54.208;19.128;2024-01-11T14:11:00;241.95;;;61.08;;
83139;SDS011;73027;54.208;19.128;2024-01-11T14:13:25;107.95;;;31.63;;
83139;SDS011;73027;54.208;19.128;2024-01-11T14:15:51;41.25;;;12.35;;
83139;SDS011;73027;54.208;19.128;2024-01-11T14:18:16;191.77;;;49.83;;
83139;SDS011;73027;54.208;19.128;2024-01-11T14:20:43;42.40;;;14.02;;
83139;SDS011;73027;54.208;19.128;2024-01-11T14:23:09;30.98;;;9.15;;
83139;SDS011;73027;54.208;19.128;2024-01-11T14:25:34;45.22;;;12.00;;
83139;SDS011;73027;54.208;19.128;2024-01-11T14:28:00;33.45;;;9.40;;